sensor_id;sensor_type;location;lat;lon;timestamp;temperature;humidity
29353;DHT22;16344;50.364;8.944;2023-02-19T00:00:56;9.80;1.00
29353;DHT22;16344;50.364;8.944;2023-02-19T00:03:22;9.90;1.00
29353;DHT22;16344;50.364;8.944;2023-02-19T00:05:47;9.80;1.00
29353;DHT22;16344;50.364;8.944;2023-02-19T00:08:13;9.90;1.00
29353;DHT22;16344;50.364;8.944;2023-02-19T00:10:38;9.90;1.00
29353;DHT22;16344;50.364;8.944;2023-02-19T00:13:04;10.00;1.00
29353;DHT22;16344;50.364;8.944;2023-02-19T00:15:31;9.90;1.00
29353;DHT22;16344;50.364;8.944;2023-02-19T00:17:57;9.90;1.00
29353;DHT22;16344;50.364;8.944;2023-02-19T00:20:22;9.90;1.00
29353;DHT22;16344;50.364;8.944;2023-02-19T00:22:48;9.90;1.00
29353;DHT22;16344;50.364;8.944;2023-02-19T00:25:13;9.90;1.00
29353;DHT22;16344;50.364;8.944;2023-02-19T00:27:39;9.80;1.00
29353;DHT22;16344;50.364;8.944;2023-02-19T00:30:05;9.70;1.00
29353;DHT22;16344;50.364;8.944;2023-02-19T00:32:30;9.80;1.00
29353;DHT22;16344;50.364;8.944;2023-02-19T00:34:56;9.80;1.00
29353;DHT22;16344;50.364;8.944;2023-02-19T00:37:21;9.70;1.00
29353;DHT22;16344;50.364;8.944;2023-02-19T00:39:47;9.70;1.00
29353;DHT22;16344;50.364;8.944;2023-02-19T00:42:13;9.70;1.00
29353;DHT22;16344;50.364;8.944;2023-02-19T00:44:38;9.70;1.00
29353;DHT22;16344;50.364;8.944;2023-02-19T00:47:04;9.70;1.00
29353;DHT22;16344;50.364;8.944;2023-02-19T00:49:30;9.70;1.00
29353;DHT22;16344;50.364;8.944;2023-02-19T00:51:55;9.80;1.00
29353;DHT22;16344;50.364;8.944;2023-02-19T00:54:21;9.80;1.00
29353;DHT22;16344;50.364;8.944;2023-02-19T00:56:47;9.80;1.00
29353;DHT22;16344;50.364;8.944;2023-02-19T00:59:13;9.80;1.00
29353;DHT22;16344;50.364;8.944;2023-02-19T01:01:39;9.80;1.00
29353;DHT22;16344;50.364;8.944;2023-02-19T01:04:04;9.80;1.00
29353;DHT22;16344;50.364;8.944;2023-02-19T01:06:30;9.80;1.00
29353;DHT22;16344;50.364;8.944;2023-02-19T01:08:57;9.80;1.00
29353;DHT22;16344;50.364;8.944;2023-02-19T01:11:23;9.80;1.00
29353;DHT22;16344;50.364;8.944;2023-02-19T01:13:49;9.90;1.00
29353;DHT22;16344;50.364;8.944;2023-02-19T01:16:17;9.90;1.00
29353;DHT22;16344;50.364;8.944;2023-02-19T01:18:44;9.80;1.00
29353;DHT22;16344;50.364;8.944;2023-02-19T01:21:22;9.80;1.00
29353;DHT22;16344;50.364;8.944;2023-02-19T01:23:49;9.80;1.00
29353;DHT22;16344;50.364;8.944;2023-02-19T01:26:18;9.90;1.00
29353;DHT22;16344;50.364;8.944;2023-02-19T01:28:44;9.80;1.00
29353;DHT22;16344;50.364;8.944;2023-02-19T01:31:13;9.80;1.00
29353;DHT22;16344;50.364;8.944;2023-02-19T01:33:38;9.80;1.00
29353;DHT22;16344;50.364;8.944;2023-02-19T01:36:05;9.90;1.00
29353;DHT22;16344;50.364;8.944;2023-02-19T01:38:31;9.90;1.00
29353;DHT22;16344;50.364;8.944;2023-02-19T01:40:59;9.80;1.00
29353;DHT22;16344;50.364;8.944;2023-02-19T01:43:26;9.80;1.00
29353;DHT22;16344;50.364;8.944;2023-02-19T01:45:52;9.80;1.00
29353;DHT22;16344;50.364;8.944;2023-02-19T01:48:28;9.80;1.00
29353;DHT22;16344;50.364;8.944;2023-02-19T01:51:17;9.70;1.00
29353;DHT22;16344;50.364;8.944;2023-02-19T01:53:48;9.70;1.00
29353;DHT22;16344;50.364;8.944;2023-02-19T01:56:17;9.70;1.00
29353;DHT22;16344;50.364;8.944;2023-02-19T01:58:44;9.70;1.00
29353;DHT22;16344;50.364;8.944;2023-02-19T02:01:10;9.70;1.00
29353;DHT22;16344;50.364;8.944;2023-02-19T02:03:37;9.70;1.00
29353;DHT22;16344;50.364;8.944;2023-02-19T02:06:12;9.70;1.00
29353;DHT22;16344;50.364;8.944;2023-02-19T02:08:40;9.80;1.00
29353;DHT22;16344;50.364;8.944;2023-02-19T02:11:24;9.80;1.00
29353;DHT22;16344;50.364;8.944;2023-02-19T02:13:51;9.80;1.00
29353;DHT22;16344;50.364;8.944;2023-02-19T02:16:42;9.70;1.00
29353;DHT22;16344;50.364;8.944;2023-02-19T02:19:50;9.70;1.00
29353;DHT22;16344;50.364;8.944;2023-02-19T02:22:32;9.70;1.00
29353;DHT22;16344;50.364;8.944;2023-02-19T02:27:50;9.70;1.00
29353;DHT22;16344;50.364;8.944;2023-02-19T02:35:53;9.70;1.00
29353;DHT22;16344;50.364;8.944;2023-02-19T02:38:24;9.60;1.00
29353;DHT22;16344;50.364;8.944;2023-02-19T02:40:50;9.70;1.00
29353;DHT22;16344;50.364;8.944;2023-02-19T02:43:16;9.60;1.00
29353;DHT22;16344;50.364;8.944;2023-02-19T02:45:42;9.60;1.00
29353;DHT22;16344;50.364;8.944;2023-02-19T02:50:56;9.70;1.00
29353;DHT22;16344;50.364;8.944;2023-02-19T02:53:31;9.70;1.00
29353;DHT22;16344;50.364;8.944;2023-02-19T02:56:17;9.70;1.00
29353;DHT22;16344;50.364;8.944;2023-02-19T02:58:44;9.70;1.00
29353;DHT22;16344;50.364;8.944;2023-02-19T03:01:24;9.70;1.00
29353;DHT22;16344;50.364;8.944;2023-02-19T03:04:55;9.70;1.00
29353;DHT22;16344;50.364;8.944;2023-02-19T03:10:17;9.70;3.20
29353;DHT22;16344;50.364;8.944;2023-02-19T03:12:44;9.70;5.10
29353;DHT22;16344;50.364;8.944;2023-02-19T03:15:34;9.60;9.80
29353;DHT22;16344;50.364;8.944;2023-02-19T03:18:20;9.50;13.70
29353;DHT22;16344;50.364;8.944;2023-02-19T03:21:06;9.50;15.10
29353;DHT22;16344;50.364;8.944;2023-02-19T03:23:34;9.50;17.50
29353;DHT22;16344;50.364;8.944;2023-02-19T03:26:20;9.50;21.00
29353;DHT22;16344;50.364;8.944;2023-02-19T03:28:47;9.50;23.80
29353;DHT22;16344;50.364;8.944;2023-02-19T03:31:33;9.50;25.00
29353;DHT22;16344;50.364;8.944;2023-02-19T03:34:02;9.50;26.00
29353;DHT22;16344;50.364;8.944;2023-02-19T03:36:36;9.50;25.10
29353;DHT22;16344;50.364;8.944;2023-02-19T03:39:05;9.50;22.40
29353;DHT22;16344;50.364;8.944;2023-02-19T03:41:54;9.50;21.40
29353;DHT22;16344;50.364;8.944;2023-02-19T03:44:52;9.60;19.10
29353;DHT22;16344;50.364;8.944;2023-02-19T03:47:53;9.50;18.30
29353;DHT22;16344;50.364;8.944;2023-02-19T03:50:29;9.50;16.70
29353;DHT22;16344;50.364;8.944;2023-02-19T03:53:10;9.50;16.20
29353;DHT22;16344;50.364;8.944;2023-02-19T03:55:49;9.60;13.80
29353;DHT22;16344;50.364;8.944;2023-02-19T04:01:29;9.60;10.60
29353;DHT22;16344;50.364;8.944;2023-02-19T04:04:08;9.60;6.90
29353;DHT22;16344;50.364;8.944;2023-02-19T04:06:37;9.60;5.50
29353;DHT22;16344;50.364;8.944;2023-02-19T04:09:06;9.70;6.20
29353;DHT22;16344;50.364;8.944;2023-02-19T04:11:33;9.60;5.70
29353;DHT22;16344;50.364;8.944;2023-02-19T04:14:25;9.70;3.60
29353;DHT22;16344;50.364;8.944;2023-02-19T04:16:53;9.70;2.80
29353;DHT22;16344;50.364;8.944;2023-02-19T04:19:22;9.60;1.00
29353;DHT22;16344;50.364;8.944;2023-02-19T04:21:49;9.60;2.60
29353;DHT22;16344;50.364;8.944;2023-02-19T04:24:42;9.60;4.00
29353;DHT22;16344;50.364;8.944;2023-02-19T04:27:07;9.60;1.40
29353;DHT22;16344;50.364;8.944;2023-02-19T04:29:33;9.60;1.00
29353;DHT22;16344;50.364;8.944;2023-02-19T04:31:59;9.60;1.00
29353;DHT22;16344;50.364;8.944;2023-02-19T04:34:24;9.60;1.00
29353;DHT22;16344;50.364;8.944;2023-02-19T04:36:50;9.70;1.00
29353;DHT22;16344;50.364;8.944;2023-02-19T04:39:15;9.70;1.00
29353;DHT22;16344;50.364;8.944;2023-02-19T04:41:41;9.70;1.00
29353;DHT22;16344;50.364;8.944;2023-02-19T04:44:06;9.70;1.00
29353;DHT22;16344;50.364;8.944;2023-02-19T04:46:32;9.70;1.00
29353;DHT22;16344;50.364;8.944;2023-02-19T04:48:57;9.70;1.00
29353;DHT22;16344;50.364;8.944;2023-02-19T04:51:23;9.70;1.00
29353;DHT22;16344;50.364;8.944;2023-02-19T04:53:48;9.70;1.00
29353;DHT22;16344;50.364;8.944;2023-02-19T04:56:15;9.60;1.00
29353;DHT22;16344;50.364;8.944;2023-02-19T04:58:42;9.70;1.00
29353;DHT22;16344;50.364;8.944;2023-02-19T05:01:09;9.60;1.00
29353;DHT22;16344;50.364;8.944;2023-02-19T05:03:35;9.70;1.00
29353;DHT22;16344;50.364;8.944;2023-02-19T05:06:06;9.60;1.00
29353;DHT22;16344;50.364;8.944;2023-02-19T05:08:32;9.60;1.00
29353;DHT22;16344;50.364;8.944;2023-02-19T05:11:03;9.70;1.00
29353;DHT22;16344;50.364;8.944;2023-02-19T05:13:30;9.70;1.00
29353;DHT22;16344;50.364;8.944;2023-02-19T05:15:57;9.70;1.00
29353;DHT22;16344;50.364;8.944;2023-02-19T05:18:24;9.70;1.00
29353;DHT22;16344;50.364;8.944;2023-02-19T05:20:50;9.70;1.00
29353;DHT22;16344;50.364;8.944;2023-02-19T05:23:16;9.70;1.00
29353;DHT22;16344;50.364;8.944;2023-02-19T05:25:42;9.70;1.00
29353;DHT22;16344;50.364;8.944;2023-02-19T05:28:07;9.70;1.00
29353;DHT22;16344;50.364;8.944;2023-02-19T05:30:49;9.70;1.00
29353;DHT22;16344;50.364;8.944;2023-02-19T05:33:17;9.70;1.00
29353;DHT22;16344;50.364;8.944;2023-02-19T05:35:48;9.60;2.90
29353;DHT22;16344;50.364;8.944;2023-02-19T05:38:14;9.60;1.80
29353;DHT22;16344;50.364;8.944;2023-02-19T05:40:41;9.70;1.00
29353;DHT22;16344;50.364;8.944;2023-02-19T05:43:07;9.60;2.10
29353;DHT22;16344;50.364;8.944;2023-02-19T05:45:34;9.70;1.80
29353;DHT22;16344;50.364;8.944;2023-02-19T05:48:00;9.60;1.00
29353;DHT22;16344;50.364;8.944;2023-02-19T05:50:26;9.70;1.00
29353;DHT22;16344;50.364;8.944;2023-02-19T05:52:51;9.60;1.00
29353;DHT22;16344;50.364;8.944;2023-02-19T05:55:17;9.70;1.00
29353;DHT22;16344;50.364;8.944;2023-02-19T05:57:45;9.70;1.00
29353;DHT22;16344;50.364;8.944;2023-02-19T06:00:13;9.70;1.00
29353;DHT22;16344;50.364;8.944;2023-02-19T06:02:39;9.70;1.00
29353;DHT22;16344;50.364;8.944;2023-02-19T06:05:05;9.60;1.00
29353;DHT22;16344;50.364;8.944;2023-02-19T06:07:31;9.60;1.00
29353;DHT22;16344;50.364;8.944;2023-02-19T06:09:57;9.60;1.00
29353;DHT22;16344;50.364;8.944;2023-02-19T06:12:22;9.60;1.00
29353;DHT22;16344;50.364;8.944;2023-02-19T06:14:48;9.60;1.00
29353;DHT22;16344;50.364;8.944;2023-02-19T06:17:14;9.60;1.00
29353;DHT22;16344;50.364;8.944;2023-02-19T06:19:40;9.70;1.00
29353;DHT22;16344;50.364;8.944;2023-02-19T06:22:06;9.70;1.00
29353;DHT22;16344;50.364;8.944;2023-02-19T06:24:31;9.70;1.00
29353;DHT22;16344;50.364;8.944;2023-02-19T06:26:57;9.70;1.00
29353;DHT22;16344;50.364;8.944;2023-02-19T06:29:23;9.70;1.00
29353;DHT22;16344;50.364;8.944;2023-02-19T06:31:49;9.60;1.00
29353;DHT22;16344;50.364;8.944;2023-02-19T06:34:14;9.70;1.00
29353;DHT22;16344;50.364;8.944;2023-02-19T06:36:40;9.70;1.00
29353;DHT22;16344;50.364;8.944;2023-02-19T06:39:05;9.70;1.00
29353;DHT22;16344;50.364;8.944;2023-02-19T06:41:32;9.70;1.00
29353;DHT22;16344;50.364;8.944;2023-02-19T06:43:58;9.70;1.00
29353;DHT22;16344;50.364;8.944;2023-02-19T06:46:23;9.70;1.00
29353;DHT22;16344;50.364;8.944;2023-02-19T06:48:49;9.70;1.00
29353;DHT22;16344;50.364;8.944;2023-02-19T06:51:17;9.70;1.00
29353;DHT22;16344;50.364;8.944;2023-02-19T06:53:44;9.60;1.00
29353;DHT22;16344;50.364;8.944;2023-02-19T06:56:26;9.60;1.00
29353;DHT22;16344;50.364;8.944;2023-02-19T06:58:53;9.60;1.00
29353;DHT22;16344;50.364;8.944;2023-02-19T07:01:19;9.70;1.00
29353;DHT22;16344;50.364;8.944;2023-02-19T07:03:44;9.70;1.00
29353;DHT22;16344;50.364;8.944;2023-02-19T07:06:10;9.70;1.00
29353;DHT22;16344;50.364;8.944;2023-02-19T07:08:35;9.80;1.00
29353;DHT22;16344;50.364;8.944;2023-02-19T07:11:01;9.70;1.00
29353;DHT22;16344;50.364;8.944;2023-02-19T07:13:26;9.70;1.00
29353;DHT22;16344;50.364;8.944;2023-02-19T07:16:01;9.70;1.00
29353;DHT22;16344;50.364;8.944;2023-02-19T07:18:28;9.70;1.00
29353;DHT22;16344;50.364;8.944;2023-02-19T07:20:54;9.70;1.00
29353;DHT22;16344;50.364;8.944;2023-02-19T07:23:19;9.70;1.00
29353;DHT22;16344;50.364;8.944;2023-02-19T07:25:45;9.70;1.00
29353;DHT22;16344;50.364;8.944;2023-02-19T07:28:10;9.70;1.00
29353;DHT22;16344;50.364;8.944;2023-02-19T07:30:36;9.70;1.00
29353;DHT22;16344;50.364;8.944;2023-02-19T07:33:01;9.80;1.00
29353;DHT22;16344;50.364;8.944;2023-02-19T07:35:27;9.70;1.00
29353;DHT22;16344;50.364;8.944;2023-02-19T07:37:53;9.80;1.00
29353;DHT22;16344;50.364;8.944;2023-02-19T07:40:18;9.80;1.00
29353;DHT22;16344;50.364;8.944;2023-02-19T07:42:44;9.80;1.00
29353;DHT22;16344;50.364;8.944;2023-02-19T07:45:10;9.80;1.00
29353;DHT22;16344;50.364;8.944;2023-02-19T07:47:35;9.70;1.00
29353;DHT22;16344;50.364;8.944;2023-02-19T07:50:01;9.80;1.00
29353;DHT22;16344;50.364;8.944;2023-02-19T07:52:26;9.80;1.00
29353;DHT22;16344;50.364;8.944;2023-02-19T07:54:52;9.80;1.00
29353;DHT22;16344;50.364;8.944;2023-02-19T07:57:18;9.90;1.00
29353;DHT22;16344;50.364;8.944;2023-02-19T07:59:43;9.90;1.00
29353;DHT22;16344;50.364;8.944;2023-02-19T08:02:19;10.00;1.00
29353;DHT22;16344;50.364;8.944;2023-02-19T08:05:05;9.90;1.00
29353;DHT22;16344;50.364;8.944;2023-02-19T08:07:31;9.90;1.00
29353;DHT22;16344;50.364;8.944;2023-02-19T08:09:57;9.90;1.00
29353;DHT22;16344;50.364;8.944;2023-02-19T08:12:41;9.90;1.00
29353;DHT22;16344;50.364;8.944;2023-02-19T08:15:25;9.90;1.00
29353;DHT22;16344;50.364;8.944;2023-02-19T08:17:50;10.00;1.00
29353;DHT22;16344;50.364;8.944;2023-02-19T08:20:16;10.00;1.00
29353;DHT22;16344;50.364;8.944;2023-02-19T08:22:44;10.10;1.00
29353;DHT22;16344;50.364;8.944;2023-02-19T08:25:10;10.10;1.00
29353;DHT22;16344;50.364;8.944;2023-02-19T08:27:35;10.10;1.00
29353;DHT22;16344;50.364;8.944;2023-02-19T08:30:01;10.10;1.00
29353;DHT22;16344;50.364;8.944;2023-02-19T08:32:26;10.10;1.00
29353;DHT22;16344;50.364;8.944;2023-02-19T08:34:52;10.20;1.00
29353;DHT22;16344;50.364;8.944;2023-02-19T08:37:17;10.20;1.00
29353;DHT22;16344;50.364;8.944;2023-02-19T08:39:43;10.10;1.00
29353;DHT22;16344;50.364;8.944;2023-02-19T08:42:08;10.20;1.00
29353;DHT22;16344;50.364;8.944;2023-02-19T08:44:34;10.20;1.00
29353;DHT22;16344;50.364;8.944;2023-02-19T08:46:59;10.10;1.00
29353;DHT22;16344;50.364;8.944;2023-02-19T08:49:25;10.20;1.00
29353;DHT22;16344;50.364;8.944;2023-02-19T08:51:51;10.10;1.00
29353;DHT22;16344;50.364;8.944;2023-02-19T08:54:17;10.20;1.00
29353;DHT22;16344;50.364;8.944;2023-02-19T08:56:42;10.20;1.00
29353;DHT22;16344;50.364;8.944;2023-02-19T08:59:08;10.20;1.00
29353;DHT22;16344;50.364;8.944;2023-02-19T09:01:33;10.10;1.00
29353;DHT22;16344;50.364;8.944;2023-02-19T09:03:59;10.10;1.00
29353;DHT22;16344;50.364;8.944;2023-02-19T09:06:25;10.10;1.00
29353;DHT22;16344;50.364;8.944;2023-02-19T09:08:50;10.10;1.00
29353;DHT22;16344;50.364;8.944;2023-02-19T09:11:16;10.10;1.00
29353;DHT22;16344;50.364;8.944;2023-02-19T09:13:42;10.10;1.00
29353;DHT22;16344;50.364;8.944;2023-02-19T09:16:08;10.10;1.00
29353;DHT22;16344;50.364;8.944;2023-02-19T09:18:33;10.10;1.00
29353;DHT22;16344;50.364;8.944;2023-02-19T09:21:01;10.10;1.00
29353;DHT22;16344;50.364;8.944;2023-02-19T09:23:27;10.10;1.00
29353;DHT22;16344;50.364;8.944;2023-02-19T09:25:59;10.00;1.00
29353;DHT22;16344;50.364;8.944;2023-02-19T09:28:26;10.00;1.00
29353;DHT22;16344;50.364;8.944;2023-02-19T09:30:52;10.10;1.00
29353;DHT22;16344;50.364;8.944;2023-02-19T09:33:17;10.00;1.00
29353;DHT22;16344;50.364;8.944;2023-02-19T09:35:43;10.20;1.00
29353;DHT22;16344;50.364;8.944;2023-02-19T09:38:08;10.20;1.00
29353;DHT22;16344;50.364;8.944;2023-02-19T09:40:36;10.20;1.00
29353;DHT22;16344;50.364;8.944;2023-02-19T09:43:05;10.20;1.00
29353;DHT22;16344;50.364;8.944;2023-02-19T09:45:33;10.20;1.00
29353;DHT22;16344;50.364;8.944;2023-02-19T09:48:00;10.20;1.00
29353;DHT22;16344;50.364;8.944;2023-02-19T09:50:36;10.10;1.00
29353;DHT22;16344;50.364;8.944;2023-02-19T09:53:05;10.10;1.00
29353;DHT22;16344;50.364;8.944;2023-02-19T09:55:42;10.10;1.00
29353;DHT22;16344;50.364;8.944;2023-02-19T09:58:31;10.10;1.00
29353;DHT22;16344;50.364;8.944;2023-02-19T10:01:00;10.10;1.00
29353;DHT22;16344;50.364;8.944;2023-02-19T10:03:28;10.10;1.00
29353;DHT22;16344;50.364;8.944;2023-02-19T10:06:01;10.20;1.00
29353;DHT22;16344;50.364;8.944;2023-02-19T10:08:31;10.30;1.00
29353;DHT22;16344;50.364;8.944;2023-02-19T10:10:57;10.30;1.00
29353;DHT22;16344;50.364;8.944;2023-02-19T10:13:33;10.30;1.00
29353;DHT22;16344;50.364;8.944;2023-02-19T10:16:02;10.40;1.00
29353;DHT22;16344;50.364;8.944;2023-02-19T10:18:37;10.40;1.00
29353;DHT22;16344;50.364;8.944;2023-02-19T10:21:04;10.40;1.00
29353;DHT22;16344;50.364;8.944;2023-02-19T10:23:30;10.30;1.00
29353;DHT22;16344;50.364;8.944;2023-02-19T10:25:57;10.40;1.00
29353;DHT22;16344;50.364;8.944;2023-02-19T10:28:30;10.30;1.00
29353;DHT22;16344;50.364;8.944;2023-02-19T10:30:58;10.40;1.00
29353;DHT22;16344;50.364;8.944;2023-02-19T10:33:24;10.40;1.00
29353;DHT22;16344;50.364;8.944;2023-02-19T10:38:46;10.50;1.00
29353;DHT22;16344;50.364;8.944;2023-02-19T10:41:19;10.40;1.00
29353;DHT22;16344;50.364;8.944;2023-02-19T10:44:12;10.40;1.00
29353;DHT22;16344;50.364;8.944;2023-02-19T10:46:46;10.40;1.00
29353;DHT22;16344;50.364;8.944;2023-02-19T10:49:31;10.50;1.00
29353;DHT22;16344;50.364;8.944;2023-02-19T10:52:13;10.40;1.00
29353;DHT22;16344;50.364;8.944;2023-02-19T10:54:42;10.40;1.00
29353;DHT22;16344;50.364;8.944;2023-02-19T10:59:51;10.40;1.00
29353;DHT22;16344;50.364;8.944;2023-02-19T11:02:20;10.50;1.00
29353;DHT22;16344;50.364;8.944;2023-02-19T11:05:10;10.60;1.00
29353;DHT22;16344;50.364;8.944;2023-02-19T11:07:56;10.60;1.00
29353;DHT22;16344;50.364;8.944;2023-02-19T11:10:32;10.60;1.00
29353;DHT22;16344;50.364;8.944;2023-02-19T11:13:01;10.60;1.00
29353;DHT22;16344;50.364;8.944;2023-02-19T11:15:33;10.70;1.00
29353;DHT22;16344;50.364;8.944;2023-02-19T11:20:44;10.80;1.00
29353;DHT22;16344;50.364;8.944;2023-02-19T11:23:16;10.70;1.00
29353;DHT22;16344;50.364;8.944;2023-02-19T11:25:47;10.80;1.00
29353;DHT22;16344;50.364;8.944;2023-02-19T11:28:36;10.70;1.00
29353;DHT22;16344;50.364;8.944;2023-02-19T11:37:14;10.80;1.00
29353;DHT22;16344;50.364;8.944;2023-02-19T11:39:42;10.90;1.00
29353;DHT22;16344;50.364;8.944;2023-02-19T11:42:26;10.90;1.00
29353;DHT22;16344;50.364;8.944;2023-02-19T11:45:22;10.90;1.00
29353;DHT22;16344;50.364;8.944;2023-02-19T11:48:09;11.00;1.00
29353;DHT22;16344;50.364;8.944;2023-02-19T11:50:55;11.10;1.00
29353;DHT22;16344;50.364;8.944;2023-02-19T11:53:27;11.20;1.00
29353;DHT22;16344;50.364;8.944;2023-02-19T11:58:50;11.50;1.00
29353;DHT22;16344;50.364;8.944;2023-02-19T12:01:34;11.60;1.00
29353;DHT22;16344;50.364;8.944;2023-02-19T12:04:06;11.60;1.00
29353;DHT22;16344;50.364;8.944;2023-02-19T12:09:29;11.50;1.00
29353;DHT22;16344;50.364;8.944;2023-02-19T12:12:08;11.50;1.00
29353;DHT22;16344;50.364;8.944;2023-02-19T12:14:54;11.60;1.00
29353;DHT22;16344;50.364;8.944;2023-02-19T12:18:07;11.60;99.90
29353;DHT22;16344;50.364;8.944;2023-02-19T12:29:35;11.90;99.90
29353;DHT22;16344;50.364;8.944;2023-02-19T12:32:15;12.00;1.00
29353;DHT22;16344;50.364;8.944;2023-02-19T12:38:11;12.30;99.90
29353;DHT22;16344;50.364;8.944;2023-02-19T12:40:54;12.20;99.90
29353;DHT22;16344;50.364;8.944;2023-02-19T12:43:23;12.30;99.90
29353;DHT22;16344;50.364;8.944;2023-02-19T12:46:11;12.20;99.90
29353;DHT22;16344;50.364;8.944;2023-02-19T12:51:11;11.80;99.90
29353;DHT22;16344;50.364;8.944;2023-02-19T12:57:08;11.60;1.00
29353;DHT22;16344;50.364;8.944;2023-02-19T12:59:33;11.60;1.00
29353;DHT22;16344;50.364;8.944;2023-02-19T13:08:02;11.60;1.00
29353;DHT22;16344;50.364;8.944;2023-02-19T13:10:43;11.80;99.90
29353;DHT22;16344;50.364;8.944;2023-02-19T13:13:24;11.90;99.90
29353;DHT22;16344;50.364;8.944;2023-02-19T13:16:02;11.90;99.90
29353;DHT22;16344;50.364;8.944;2023-02-19T13:18:50;11.70;99.90
29353;DHT22;16344;50.364;8.944;2023-02-19T13:21:19;11.70;1.00
29353;DHT22;16344;50.364;8.944;2023-02-19T13:24:11;11.70;1.00
29353;DHT22;16344;50.364;8.944;2023-02-19T13:32:39;11.50;1.00
29353;DHT22;16344;50.364;8.944;2023-02-19T13:35:25;11.50;1.00
29353;DHT22;16344;50.364;8.944;2023-02-19T13:37:53;11.50;1.00
29353;DHT22;16344;50.364;8.944;2023-02-19T13:40:41;11.50;1.00
29353;DHT22;16344;50.364;8.944;2023-02-19T13:43:32;11.60;1.00
29353;DHT22;16344;50.364;8.944;2023-02-19T13:46:09;11.60;1.00
29353;DHT22;16344;50.364;8.944;2023-02-19T13:48:38;11.60;1.00
29353;DHT22;16344;50.364;8.944;2023-02-19T13:59:32;11.50;1.00
29353;DHT22;16344;50.364;8.944;2023-02-19T14:04:50;11.40;1.00
29353;DHT22;16344;50.364;8.944;2023-02-19T14:14:47;11.40;1.00
29353;DHT22;16344;50.364;8.944;2023-02-19T14:20:43;11.40;1.00
29353;DHT22;16344;50.364;8.944;2023-02-19T14:23:35;11.50;1.00
29353;DHT22;16344;50.364;8.944;2023-02-19T14:26:01;11.50;1.00
29353;DHT22;16344;50.364;8.944;2023-02-19T14:28:39;11.60;1.00
29353;DHT22;16344;50.364;8.944;2023-02-19T14:31:12;11.50;1.00
29353;DHT22;16344;50.364;8.944;2023-02-19T14:33:45;11.40;1.00
29353;DHT22;16344;50.364;8.944;2023-02-19T14:36:43;11.40;1.00
29353;DHT22;16344;50.364;8.944;2023-02-19T14:39:23;11.50;1.00
29353;DHT22;16344;50.364;8.944;2023-02-19T14:42:01;11.50;1.00
29353;DHT22;16344;50.364;8.944;2023-02-19T14:44:32;11.50;1.00
29353;DHT22;16344;50.364;8.944;2023-02-19T14:47:06;11.50;1.00
29353;DHT22;16344;50.364;8.944;2023-02-19T14:49:46;11.60;1.00
29353;DHT22;16344;50.364;8.944;2023-02-19T14:52:22;11.60;1.00
29353;DHT22;16344;50.364;8.944;2023-02-19T14:55:18;11.60;1.00
29353;DHT22;16344;50.364;8.944;2023-02-19T14:57:46;11.60;1.00
29353;DHT22;16344;50.364;8.944;2023-02-19T15:00:25;11.50;1.00
29353;DHT22;16344;50.364;8.944;2023-02-19T15:02:53;11.50;99.90
29353;DHT22;16344;50.364;8.944;2023-02-19T15:05:25;11.50;99.90
29353;DHT22;16344;50.364;8.944;2023-02-19T15:07:52;11.50;99.90
29353;DHT22;16344;50.364;8.944;2023-02-19T15:10:20;11.40;99.90
29353;DHT22;16344;50.364;8.944;2023-02-19T15:12:49;11.30;99.90
29353;DHT22;16344;50.364;8.944;2023-02-19T15:15:19;11.20;99.90
29353;DHT22;16344;50.364;8.944;2023-02-19T15:17:46;11.10;99.90
29353;DHT22;16344;50.364;8.944;2023-02-19T15:20:17;11.20;99.90
29353;DHT22;16344;50.364;8.944;2023-02-19T15:22:43;11.10;1.00
29353;DHT22;16344;50.364;8.944;2023-02-19T15:25:18;11.10;99.90
29353;DHT22;16344;50.364;8.944;2023-02-19T15:27:52;11.10;99.90
29353;DHT22;16344;50.364;8.944;2023-02-19T15:30:28;11.20;1.00
29353;DHT22;16344;50.364;8.944;2023-02-19T15:32:59;11.10;1.00
29353;DHT22;16344;50.364;8.944;2023-02-19T15:35:26;11.00;99.90
29353;DHT22;16344;50.364;8.944;2023-02-19T15:37:55;11.00;99.90
29353;DHT22;16344;50.364;8.944;2023-02-19T15:40:25;10.90;1.00
29353;DHT22;16344;50.364;8.944;2023-02-19T15:42:53;10.90;99.90
29353;DHT22;16344;50.364;8.944;2023-02-19T15:45:20;10.90;99.90
29353;DHT22;16344;50.364;8.944;2023-02-19T15:50:30;10.90;99.90
29353;DHT22;16344;50.364;8.944;2023-02-19T15:53:03;10.80;99.90
29353;DHT22;16344;50.364;8.944;2023-02-19T15:56:02;10.90;1.00
29353;DHT22;16344;50.364;8.944;2023-02-19T15:58:39;10.90;1.00
29353;DHT22;16344;50.364;8.944;2023-02-19T16:03:43;11.00;1.00
29353;DHT22;16344;50.364;8.944;2023-02-19T16:06:11;11.00;99.90
29353;DHT22;16344;50.364;8.944;2023-02-19T16:08:41;10.90;99.90
29353;DHT22;16344;50.364;8.944;2023-02-19T16:13:50;10.90;99.90
29353;DHT22;16344;50.364;8.944;2023-02-19T16:18:48;11.00;99.90
29353;DHT22;16344;50.364;8.944;2023-02-19T16:21:16;11.00;1.00
29353;DHT22;16344;50.364;8.944;2023-02-19T16:23:46;10.90;1.00
29353;DHT22;16344;50.364;8.944;2023-02-19T16:26:13;10.90;1.00
29353;DHT22;16344;50.364;8.944;2023-02-19T16:28:40;10.80;1.00
29353;DHT22;16344;50.364;8.944;2023-02-19T16:31:08;10.70;1.00
29353;DHT22;16344;50.364;8.944;2023-02-19T16:33:45;10.70;1.00
29353;DHT22;16344;50.364;8.944;2023-02-19T16:41:33;10.60;1.00
29353;DHT22;16344;50.364;8.944;2023-02-19T16:43:59;10.60;1.00
29353;DHT22;16344;50.364;8.944;2023-02-19T16:46:31;10.60;1.00
29353;DHT22;16344;50.364;8.944;2023-02-19T16:48:56;10.50;1.00
29353;DHT22;16344;50.364;8.944;2023-02-19T16:51:26;10.40;1.00
29353;DHT22;16344;50.364;8.944;2023-02-19T16:53:52;10.40;1.00
29353;DHT22;16344;50.364;8.944;2023-02-19T16:56:19;10.40;1.00
29353;DHT22;16344;50.364;8.944;2023-02-19T16:58:50;10.40;1.00
29353;DHT22;16344;50.364;8.944;2023-02-19T17:01:16;10.30;1.00
29353;DHT22;16344;50.364;8.944;2023-02-19T17:03:43;10.20;1.00
29353;DHT22;16344;50.364;8.944;2023-02-19T17:06:10;10.30;1.00
29353;DHT22;16344;50.364;8.944;2023-02-19T17:08:38;10.30;1.00
29353;DHT22;16344;50.364;8.944;2023-02-19T17:11:11;10.30;1.00
29353;DHT22;16344;50.364;8.944;2023-02-19T17:13:36;10.20;1.00
29353;DHT22;16344;50.364;8.944;2023-02-19T17:16:02;10.20;1.00
29353;DHT22;16344;50.364;8.944;2023-02-19T17:18:28;10.10;1.00
29353;DHT22;16344;50.364;8.944;2023-02-19T17:20:58;10.10;1.00
29353;DHT22;16344;50.364;8.944;2023-02-19T17:23:25;10.10;1.00
29353;DHT22;16344;50.364;8.944;2023-02-19T17:25:51;10.10;1.00
29353;DHT22;16344;50.364;8.944;2023-02-19T17:28:16;10.10;1.00
29353;DHT22;16344;50.364;8.944;2023-02-19T17:30:42;10.00;1.00
29353;DHT22;16344;50.364;8.944;2023-02-19T17:33:07;10.00;1.00
29353;DHT22;16344;50.364;8.944;2023-02-19T17:35:33;10.00;1.00
29353;DHT22;16344;50.364;8.944;2023-02-19T17:37:58;10.10;1.00
29353;DHT22;16344;50.364;8.944;2023-02-19T17:40:27;10.10;1.00
29353;DHT22;16344;50.364;8.944;2023-02-19T17:42:53;10.20;1.00
29353;DHT22;16344;50.364;8.944;2023-02-19T17:45:18;10.10;1.00
29353;DHT22;16344;50.364;8.944;2023-02-19T17:47:44;10.20;1.00
29353;DHT22;16344;50.364;8.944;2023-02-19T17:50:15;10.20;1.00
29353;DHT22;16344;50.364;8.944;2023-02-19T17:52:41;10.20;1.00
29353;DHT22;16344;50.364;8.944;2023-02-19T17:55:07;10.20;1.00
29353;DHT22;16344;50.364;8.944;2023-02-19T17:57:33;10.10;1.00
29353;DHT22;16344;50.364;8.944;2023-02-19T17:59:59;10.10;1.00